sensor_id;sensor_type;location;lat;lon;timestamp;P1;durP1;ratioP1;P2;durP2;ratioP2
56667;SDS011;42542;48.360;10.958;2023-07-13T00:01:52;13.98;;;5.93;;
56667;SDS011;42542;48.360;10.958;2023-07-13T00:05:06;12.50;;;5.75;;
56667;SDS011;42542;48.360;10.958;2023-07-13T00:08:17;12.73;;;5.70;;
56667;SDS011;42542;48.360;10.958;2023-07-13T00:11:22;12.40;;;5.80;;
56667;SDS011;42542;48.360;10.958;2023-07-13T00:14:27;16.50;;;5.90;;
56667;SDS011;42542;48.360;10.958;2023-07-13T00:17:39;13.45;;;5.53;;
56667;SDS011;42542;48.360;10.958;2023-07-13T00:20:46;11.27;;;5.72;;
56667;SDS011;42542;48.360;10.958;2023-07-13T00:23:48;13.95;;;5.90;;
56667;SDS011;42542;48.360;10.958;2023-07-13T00:26:50;12.47;;;5.80;;
56667;SDS011;42542;48.360;10.958;2023-07-13T00:29:55;13.90;;;5.75;;
56667;SDS011;42542;48.360;10.958;2023-07-13T00:32:58;12.52;;;5.20;;
56667;SDS011;42542;48.360;10.958;2023-07-13T00:36:20;13.98;;;5.55;;
56667;SDS011;42542;48.360;10.958;2023-07-13T00:39:24;11.32;;;5.45;;
56667;SDS011;42542;48.360;10.958;2023-07-13T00:42:29;13.20;;;5.37;;
56667;SDS011;42542;48.360;10.958;2023-07-13T00:48:46;14.25;;;5.95;;
56667;SDS011;42542;48.360;10.958;2023-07-13T00:52:03;13.20;;;5.50;;
56667;SDS011;42542;48.360;10.958;2023-07-13T00:55:09;13.98;;;5.90;;
56667;SDS011;42542;48.360;10.958;2023-07-13T00:58:17;11.67;;;5.43;;
56667;SDS011;42542;48.360;10.958;2023-07-13T01:01:20;15.73;;;6.10;;
56667;SDS011;42542;48.360;10.958;2023-07-13T01:04:25;11.43;;;5.50;;
56667;SDS011;42542;48.360;10.958;2023-07-13T01:07:30;10.60;;;5.38;;
56667;SDS011;42542;48.360;10.958;2023-07-13T01:10:33;13.07;;;5.85;;
56667;SDS011;42542;48.360;10.958;2023-07-13T01:13:43;13.00;;;5.87;;
56667;SDS011;42542;48.360;10.958;2023-07-13T01:16:47;10.75;;;5.50;;
56667;SDS011;42542;48.360;10.958;2023-07-13T01:19:53;12.38;;;5.93;;
56667;SDS011;42542;48.360;10.958;2023-07-13T01:22:59;11.48;;;5.85;;
56667;SDS011;42542;48.360;10.958;2023-07-13T01:26:08;12.50;;;5.50;;
56667;SDS011;42542;48.360;10.958;2023-07-13T01:29:14;13.37;;;5.90;;
56667;SDS011;42542;48.360;10.958;2023-07-13T01:32:19;10.63;;;5.78;;
56667;SDS011;42542;48.360;10.958;2023-07-13T01:35:30;12.55;;;6.07;;
56667;SDS011;42542;48.360;10.958;2023-07-13T01:38:32;12.07;;;6.32;;
56667;SDS011;42542;48.360;10.958;2023-07-13T01:41:40;12.20;;;5.97;;
56667;SDS011;42542;48.360;10.958;2023-07-13T01:44:42;12.57;;;6.67;;
56667;SDS011;42542;48.360;10.958;2023-07-13T01:47:46;12.93;;;6.18;;
56667;SDS011;42542;48.360;10.958;2023-07-13T01:50:51;12.98;;;6.07;;
56667;SDS011;42542;48.360;10.958;2023-07-13T01:53:53;12.27;;;6.43;;
56667;SDS011;42542;48.360;10.958;2023-07-13T01:56:55;15.20;;;6.15;;
56667;SDS011;42542;48.360;10.958;2023-07-13T02:00:02;15.83;;;6.97;;
56667;SDS011;42542;48.360;10.958;2023-07-13T02:03:15;15.05;;;6.72;;
56667;SDS011;42542;48.360;10.958;2023-07-13T02:06:20;12.25;;;6.35;;
56667;SDS011;42542;48.360;10.958;2023-07-13T02:09:22;13.77;;;6.45;;
56667;SDS011;42542;48.360;10.958;2023-07-13T02:12:24;14.25;;;6.85;;
56667;SDS011;42542;48.360;10.958;2023-07-13T02:15:26;13.97;;;6.63;;
56667;SDS011;42542;48.360;10.958;2023-07-13T02:18:28;16.45;;;6.60;;
56667;SDS011;42542;48.360;10.958;2023-07-13T02:21:31;14.55;;;6.97;;
56667;SDS011;42542;48.360;10.958;2023-07-13T02:24:35;13.57;;;6.53;;
56667;SDS011;42542;48.360;10.958;2023-07-13T02:27:40;12.98;;;6.38;;
56667;SDS011;42542;48.360;10.958;2023-07-13T02:30:43;17.57;;;6.40;;
56667;SDS011;42542;48.360;10.958;2023-07-13T02:33:45;14.77;;;6.13;;
56667;SDS011;42542;48.360;10.958;2023-07-13T02:36:47;13.75;;;6.60;;
56667;SDS011;42542;48.360;10.958;2023-07-13T02:39:50;12.50;;;6.32;;
56667;SDS011;42542;48.360;10.958;2023-07-13T02:42:51;13.05;;;6.32;;
56667;SDS011;42542;48.360;10.958;2023-07-13T02:45:54;17.93;;;6.70;;
56667;SDS011;42542;48.360;10.958;2023-07-13T02:48:56;13.52;;;6.22;;
56667;SDS011;42542;48.360;10.958;2023-07-13T02:51:59;12.95;;;6.43;;
56667;SDS011;42542;48.360;10.958;2023-07-13T02:55:01;13.93;;;6.65;;
56667;SDS011;42542;48.360;10.958;2023-07-13T02:58:05;13.10;;;6.80;;
56667;SDS011;42542;48.360;10.958;2023-07-13T03:01:08;13.20;;;5.83;;
56667;SDS011;42542;48.360;10.958;2023-07-13T03:04:14;14.60;;;6.47;;
56667;SDS011;42542;48.360;10.958;2023-07-13T03:07:15;14.77;;;6.75;;
56667;SDS011;42542;48.360;10.958;2023-07-13T03:10:23;13.32;;;6.32;;
56667;SDS011;42542;48.360;10.958;2023-07-13T03:13:25;11.10;;;6.38;;
56667;SDS011;42542;48.360;10.958;2023-07-13T03:16:29;12.93;;;6.40;;
56667;SDS011;42542;48.360;10.958;2023-07-13T03:19:31;13.80;;;6.30;;
56667;SDS011;42542;48.360;10.958;2023-07-13T03:22:33;14.02;;;6.50;;
56667;SDS011;42542;48.360;10.958;2023-07-13T03:25:40;12.32;;;6.20;;
56667;SDS011;42542;48.360;10.958;2023-07-13T03:28:43;12.68;;;6.25;;
56667;SDS011;42542;48.360;10.958;2023-07-13T03:31:50;12.57;;;6.17;;
56667;SDS011;42542;48.360;10.958;2023-07-13T03:34:54;11.68;;;5.95;;
56667;SDS011;42542;48.360;10.958;2023-07-13T03:37:59;11.85;;;5.57;;
56667;SDS011;42542;48.360;10.958;2023-07-13T03:41:05;14.23;;;6.18;;
56667;SDS011;42542;48.360;10.958;2023-07-13T03:44:06;11.23;;;5.70;;
56667;SDS011;42542;48.360;10.958;2023-07-13T03:47:12;10.27;;;5.23;;
56667;SDS011;42542;48.360;10.958;2023-07-13T03:50:14;13.05;;;5.55;;
56667;SDS011;42542;48.360;10.958;2023-07-13T03:53:17;11.32;;;5.40;;
56667;SDS011;42542;48.360;10.958;2023-07-13T03:56:20;10.85;;;5.45;;
56667;SDS011;42542;48.360;10.958;2023-07-13T03:59:25;11.45;;;5.35;;
56667;SDS011;42542;48.360;10.958;2023-07-13T04:02:27;10.97;;;5.67;;
56667;SDS011;42542;48.360;10.958;2023-07-13T04:05:36;10.95;;;5.32;;
56667;SDS011;42542;48.360;10.958;2023-07-13T04:08:40;9.45;;;4.63;;
56667;SDS011;42542;48.360;10.958;2023-07-13T04:11:43;10.80;;;5.15;;
56667;SDS011;42542;48.360;10.958;2023-07-13T04:14:48;10.30;;;5.13;;
56667;SDS011;42542;48.360;10.958;2023-07-13T04:17:51;9.80;;;5.00;;
56667;SDS011;42542;48.360;10.958;2023-07-13T04:20:54;10.52;;;5.05;;
56667;SDS011;42542;48.360;10.958;2023-07-13T04:23:59;10.43;;;5.10;;
56667;SDS011;42542;48.360;10.958;2023-07-13T04:27:03;10.02;;;4.70;;
56667;SDS011;42542;48.360;10.958;2023-07-13T04:30:06;12.48;;;4.60;;
56667;SDS011;42542;48.360;10.958;2023-07-13T04:33:09;10.53;;;4.93;;
56667;SDS011;42542;48.360;10.958;2023-07-13T04:36:14;11.93;;;4.65;;
56667;SDS011;42542;48.360;10.958;2023-07-13T04:39:19;9.35;;;4.40;;
56667;SDS011;42542;48.360;10.958;2023-07-13T04:42:22;9.30;;;4.35;;
56667;SDS011;42542;48.360;10.958;2023-07-13T04:45:26;10.52;;;4.78;;
56667;SDS011;42542;48.360;10.958;2023-07-13T04:48:28;9.37;;;4.23;;
56667;SDS011;42542;48.360;10.958;2023-07-13T04:51:32;10.52;;;4.32;;
56667;SDS011;42542;48.360;10.958;2023-07-13T04:54:36;9.55;;;4.20;;
56667;SDS011;42542;48.360;10.958;2023-07-13T04:57:42;10.80;;;3.75;;
56667;SDS011;42542;48.360;10.958;2023-07-13T05:00:46;9.43;;;4.28;;
56667;SDS011;42542;48.360;10.958;2023-07-13T05:03:48;8.77;;;3.60;;
56667;SDS011;42542;48.360;10.958;2023-07-13T05:06:52;10.00;;;3.33;;
56667;SDS011;42542;48.360;10.958;2023-07-13T05:09:55;9.23;;;3.72;;
56667;SDS011;42542;48.360;10.958;2023-07-13T05:12:58;7.95;;;3.55;;
56667;SDS011;42542;48.360;10.958;2023-07-13T05:16:05;8.85;;;3.42;;
56667;SDS011;42542;48.360;10.958;2023-07-13T05:19:11;10.37;;;3.80;;
56667;SDS011;42542;48.360;10.958;2023-07-13T05:22:15;9.63;;;3.38;;
56667;SDS011;42542;48.360;10.958;2023-07-13T05:25:18;7.60;;;3.63;;
56667;SDS011;42542;48.360;10.958;2023-07-13T05:28:24;9.05;;;3.40;;
56667;SDS011;42542;48.360;10.958;2023-07-13T05:31:32;8.65;;;3.25;;
56667;SDS011;42542;48.360;10.958;2023-07-13T05:34:37;8.43;;;3.30;;
56667;SDS011;42542;48.360;10.958;2023-07-13T05:37:43;9.10;;;3.03;;
56667;SDS011;42542;48.360;10.958;2023-07-13T05:40:45;8.85;;;2.95;;
56667;SDS011;42542;48.360;10.958;2023-07-13T05:43:50;6.72;;;3.00;;
56667;SDS011;42542;48.360;10.958;2023-07-13T05:46:54;8.27;;;3.05;;
56667;SDS011;42542;48.360;10.958;2023-07-13T05:50:01;7.63;;;2.93;;
56667;SDS011;42542;48.360;10.958;2023-07-13T05:53:07;7.97;;;2.70;;
56667;SDS011;42542;48.360;10.958;2023-07-13T05:56:10;8.18;;;3.10;;
56667;SDS011;42542;48.360;10.958;2023-07-13T05:59:17;7.55;;;2.60;;
56667;SDS011;42542;48.360;10.958;2023-07-13T06:02:22;7.60;;;2.70;;
56667;SDS011;42542;48.360;10.958;2023-07-13T06:05:30;6.87;;;2.90;;
56667;SDS011;42542;48.360;10.958;2023-07-13T06:08:33;5.60;;;2.42;;
56667;SDS011;42542;48.360;10.958;2023-07-13T06:11:40;9.00;;;2.50;;
56667;SDS011;42542;48.360;10.958;2023-07-13T06:14:44;8.52;;;2.70;;
56667;SDS011;42542;48.360;10.958;2023-07-13T06:17:48;8.25;;;2.70;;
56667;SDS011;42542;48.360;10.958;2023-07-13T06:20:50;6.83;;;2.87;;
56667;SDS011;42542;48.360;10.958;2023-07-13T06:23:54;8.13;;;3.00;;
56667;SDS011;42542;48.360;10.958;2023-07-13T06:26:56;6.93;;;3.00;;
56667;SDS011;42542;48.360;10.958;2023-07-13T06:30:04;7.18;;;2.90;;
56667;SDS011;42542;48.360;10.958;2023-07-13T06:33:11;9.30;;;2.97;;
56667;SDS011;42542;48.360;10.958;2023-07-13T06:36:16;9.67;;;3.17;;
56667;SDS011;42542;48.360;10.958;2023-07-13T06:39:19;9.73;;;3.05;;
56667;SDS011;42542;48.360;10.958;2023-07-13T06:42:23;8.90;;;3.30;;
56667;SDS011;42542;48.360;10.958;2023-07-13T06:45:26;6.82;;;2.70;;
56667;SDS011;42542;48.360;10.958;2023-07-13T06:48:31;9.82;;;3.13;;
56667;SDS011;42542;48.360;10.958;2023-07-13T06:51:33;7.30;;;2.77;;
56667;SDS011;42542;48.360;10.958;2023-07-13T06:54:40;8.02;;;3.05;;
56667;SDS011;42542;48.360;10.958;2023-07-13T06:57:45;8.73;;;2.85;;
56667;SDS011;42542;48.360;10.958;2023-07-13T07:00:50;9.23;;;3.00;;
56667;SDS011;42542;48.360;10.958;2023-07-13T07:03:56;8.52;;;3.08;;
56667;SDS011;42542;48.360;10.958;2023-07-13T07:07:03;7.20;;;2.90;;
56667;SDS011;42542;48.360;10.958;2023-07-13T07:10:08;7.82;;;3.15;;
56667;SDS011;42542;48.360;10.958;2023-07-13T07:13:13;7.07;;;2.85;;
56667;SDS011;42542;48.360;10.958;2023-07-13T07:16:17;9.32;;;3.10;;
56667;SDS011;42542;48.360;10.958;2023-07-13T07:19:21;7.00;;;2.80;;
56667;SDS011;42542;48.360;10.958;2023-07-13T07:22:30;6.60;;;2.63;;
56667;SDS011;42542;48.360;10.958;2023-07-13T07:25:32;6.95;;;2.75;;
56667;SDS011;42542;48.360;10.958;2023-07-13T07:28:40;7.30;;;2.45;;
56667;SDS011;42542;48.360;10.958;2023-07-13T07:31:50;7.13;;;2.80;;
56667;SDS011;42542;48.360;10.958;2023-07-13T07:35:07;6.78;;;2.80;;
56667;SDS011;42542;48.360;10.958;2023-07-13T07:38:10;5.60;;;2.50;;
56667;SDS011;42542;48.360;10.958;2023-07-13T07:41:16;6.55;;;2.65;;
56667;SDS011;42542;48.360;10.958;2023-07-13T07:44:24;6.90;;;2.53;;
56667;SDS011;42542;48.360;10.958;2023-07-13T07:47:33;6.18;;;2.50;;
56667;SDS011;42542;48.360;10.958;2023-07-13T07:50:35;7.90;;;2.60;;
56667;SDS011;42542;48.360;10.958;2023-07-13T07:53:38;9.50;;;2.40;;
56667;SDS011;42542;48.360;10.958;2023-07-13T07:56:44;8.23;;;2.28;;
56667;SDS011;42542;48.360;10.958;2023-07-13T08:00:09;10.65;;;2.50;;
56667;SDS011;42542;48.360;10.958;2023-07-13T08:03:21;7.43;;;2.53;;
56667;SDS011;42542;48.360;10.958;2023-07-13T08:06:25;7.30;;;2.47;;
56667;SDS011;42542;48.360;10.958;2023-07-13T08:09:32;8.10;;;2.60;;
56667;SDS011;42542;48.360;10.958;2023-07-13T08:12:35;6.45;;;2.20;;
56667;SDS011;42542;48.360;10.958;2023-07-13T08:15:45;6.80;;;2.58;;
56667;SDS011;42542;48.360;10.958;2023-07-13T08:18:51;7.78;;;2.40;;
56667;SDS011;42542;48.360;10.958;2023-07-13T08:21:53;7.68;;;2.47;;
56667;SDS011;42542;48.360;10.958;2023-07-13T08:25:02;6.73;;;2.40;;
56667;SDS011;42542;48.360;10.958;2023-07-13T08:28:04;6.95;;;2.10;;
56667;SDS011;42542;48.360;10.958;2023-07-13T08:31:07;6.53;;;2.30;;
56667;SDS011;42542;48.360;10.958;2023-07-13T08:34:12;7.95;;;2.20;;
56667;SDS011;42542;48.360;10.958;2023-07-13T08:37:19;6.80;;;2.10;;
56667;SDS011;42542;48.360;10.958;2023-07-13T08:40:24;8.40;;;2.47;;
56667;SDS011;42542;48.360;10.958;2023-07-13T08:43:33;6.30;;;2.28;;
56667;SDS011;42542;48.360;10.958;2023-07-13T08:46:39;9.52;;;2.10;;
56667;SDS011;42542;48.360;10.958;2023-07-13T08:49:44;6.85;;;2.00;;
56667;SDS011;42542;48.360;10.958;2023-07-13T08:52:49;7.13;;;2.10;;
56667;SDS011;42542;48.360;10.958;2023-07-13T08:55:51;7.03;;;2.00;;
56667;SDS011;42542;48.360;10.958;2023-07-13T08:59:12;6.95;;;2.03;;
56667;SDS011;42542;48.360;10.958;2023-07-13T09:05:40;7.45;;;1.90;;
56667;SDS011;42542;48.360;10.958;2023-07-13T09:09:04;7.78;;;2.00;;
56667;SDS011;42542;48.360;10.958;2023-07-13T09:12:23;7.30;;;1.90;;
56667;SDS011;42542;48.360;10.958;2023-07-13T09:15:40;7.07;;;1.80;;
56667;SDS011;42542;48.360;10.958;2023-07-13T09:18:49;6.35;;;1.80;;
56667;SDS011;42542;48.360;10.958;2023-07-13T09:21:59;7.78;;;1.90;;
56667;SDS011;42542;48.360;10.958;2023-07-13T09:25:12;4.50;;;1.60;;
56667;SDS011;42542;48.360;10.958;2023-07-13T09:28:46;6.70;;;1.90;;
56667;SDS011;42542;48.360;10.958;2023-07-13T09:31:55;6.70;;;1.67;;
56667;SDS011;42542;48.360;10.958;2023-07-13T09:35:09;5.95;;;1.80;;
56667;SDS011;42542;48.360;10.958;2023-07-13T09:38:15;5.93;;;1.90;;
56667;SDS011;42542;48.360;10.958;2023-07-13T09:41:41;5.95;;;1.90;;
56667;SDS011;42542;48.360;10.958;2023-07-13T09:45:01;5.40;;;1.90;;
56667;SDS011;42542;48.360;10.958;2023-07-13T09:48:14;7.60;;;1.75;;
56667;SDS011;42542;48.360;10.958;2023-07-13T09:51:17;5.80;;;1.70;;
56667;SDS011;42542;48.360;10.958;2023-07-13T09:54:24;6.63;;;1.80;;
56667;SDS011;42542;48.360;10.958;2023-07-13T09:57:28;6.57;;;1.70;;
56667;SDS011;42542;48.360;10.958;2023-07-13T10:00:57;6.80;;;1.90;;
56667;SDS011;42542;48.360;10.958;2023-07-13T10:04:12;7.60;;;1.70;;
56667;SDS011;42542;48.360;10.958;2023-07-13T10:07:19;6.82;;;2.03;;
56667;SDS011;42542;48.360;10.958;2023-07-13T10:10:30;6.50;;;2.13;;
56667;SDS011;42542;48.360;10.958;2023-07-13T10:13:36;6.05;;;2.40;;
56667;SDS011;42542;48.360;10.958;2023-07-13T10:16:43;6.27;;;1.90;;
56667;SDS011;42542;48.360;10.958;2023-07-13T10:19:47;6.17;;;2.00;;
56667;SDS011;42542;48.360;10.958;2023-07-13T10:22:51;7.25;;;1.90;;
56667;SDS011;42542;48.360;10.958;2023-07-13T10:25:54;6.13;;;1.98;;
56667;SDS011;42542;48.360;10.958;2023-07-13T10:29:02;5.35;;;1.80;;
56667;SDS011;42542;48.360;10.958;2023-07-13T10:32:11;8.37;;;2.17;;
56667;SDS011;42542;48.360;10.958;2023-07-13T10:35:16;6.82;;;1.90;;
56667;SDS011;42542;48.360;10.958;2023-07-13T10:38:21;5.35;;;1.80;;
56667;SDS011;42542;48.360;10.958;2023-07-13T10:41:25;6.22;;;1.80;;
56667;SDS011;42542;48.360;10.958;2023-07-13T10:44:30;5.68;;;1.90;;
56667;SDS011;42542;48.360;10.958;2023-07-13T10:47:33;6.93;;;2.20;;
56667;SDS011;42542;48.360;10.958;2023-07-13T10:50:35;7.73;;;1.97;;
56667;SDS011;42542;48.360;10.958;2023-07-13T10:53:48;6.57;;;1.95;;
56667;SDS011;42542;48.360;10.958;2023-07-13T10:57:24;6.90;;;1.92;;
56667;SDS011;42542;48.360;10.958;2023-07-13T11:00:26;6.50;;;2.22;;
56667;SDS011;42542;48.360;10.958;2023-07-13T11:03:29;6.60;;;2.10;;
56667;SDS011;42542;48.360;10.958;2023-07-13T11:06:39;6.70;;;2.10;;
56667;SDS011;42542;48.360;10.958;2023-07-13T11:09:52;6.55;;;2.10;;
56667;SDS011;42542;48.360;10.958;2023-07-13T11:12:59;6.13;;;2.15;;
56667;SDS011;42542;48.360;10.958;2023-07-13T11:16:14;5.88;;;2.00;;
56667;SDS011;42542;48.360;10.958;2023-07-13T11:19:54;8.13;;;2.13;;
56667;SDS011;42542;48.360;10.958;2023-07-13T11:29:48;7.85;;;2.30;;
56667;SDS011;42542;48.360;10.958;2023-07-13T11:36:29;6.27;;;2.13;;
56667;SDS011;42542;48.360;10.958;2023-07-13T11:39:36;8.60;;;2.30;;
56667;SDS011;42542;48.360;10.958;2023-07-13T11:42:50;5.28;;;2.03;;
56667;SDS011;42542;48.360;10.958;2023-07-13T11:45:51;6.30;;;2.10;;
56667;SDS011;42542;48.360;10.958;2023-07-13T11:48:54;6.90;;;2.08;;
56667;SDS011;42542;48.360;10.958;2023-07-13T11:51:56;5.63;;;2.20;;
56667;SDS011;42542;48.360;10.958;2023-07-13T11:55:00;7.40;;;2.30;;
56667;SDS011;42542;48.360;10.958;2023-07-13T11:58:07;5.63;;;2.17;;
56667;SDS011;42542;48.360;10.958;2023-07-13T12:01:17;6.40;;;2.13;;
56667;SDS011;42542;48.360;10.958;2023-07-13T12:04:29;6.75;;;2.33;;
56667;SDS011;42542;48.360;10.958;2023-07-13T12:07:35;7.07;;;2.40;;
56667;SDS011;42542;48.360;10.958;2023-07-13T12:10:39;6.20;;;2.30;;
56667;SDS011;42542;48.360;10.958;2023-07-13T12:13:46;5.78;;;2.50;;
56667;SDS011;42542;48.360;10.958;2023-07-13T12:16:56;6.18;;;2.15;;
56667;SDS011;42542;48.360;10.958;2023-07-13T12:20:16;7.00;;;2.20;;
56667;SDS011;42542;48.360;10.958;2023-07-13T12:23:31;7.07;;;2.50;;
56667;SDS011;42542;48.360;10.958;2023-07-13T12:26:42;5.60;;;2.10;;
56667;SDS011;42542;48.360;10.958;2023-07-13T12:30:34;7.22;;;2.13;;
56667;SDS011;42542;48.360;10.958;2023-07-13T12:33:33;7.75;;;2.10;;
56667;SDS011;42542;48.360;10.958;2023-07-13T12:36:46;6.35;;;2.13;;
56667;SDS011;42542;48.360;10.958;2023-07-13T12:39:51;5.87;;;2.00;;
56667;SDS011;42542;48.360;10.958;2023-07-13T12:43:04;7.63;;;2.23;;
56667;SDS011;42542;48.360;10.958;2023-07-13T12:46:19;5.55;;;2.00;;
56667;SDS011;42542;48.360;10.958;2023-07-13T12:49:27;6.88;;;2.10;;
56667;SDS011;42542;48.360;10.958;2023-07-13T12:52:35;6.07;;;2.38;;
56667;SDS011;42542;48.360;10.958;2023-07-13T12:55:57;7.13;;;2.00;;
56667;SDS011;42542;48.360;10.958;2023-07-13T12:59:06;6.93;;;2.60;;
56667;SDS011;42542;48.360;10.958;2023-07-13T13:05:37;9.18;;;2.08;;
56667;SDS011;42542;48.360;10.958;2023-07-13T13:08:41;6.32;;;2.15;;
56667;SDS011;42542;48.360;10.958;2023-07-13T13:11:45;5.43;;;2.07;;
56667;SDS011;42542;48.360;10.958;2023-07-13T13:14:48;6.27;;;2.07;;
56667;SDS011;42542;48.360;10.958;2023-07-13T13:17:56;6.25;;;2.03;;
56667;SDS011;42542;48.360;10.958;2023-07-13T13:21:01;6.78;;;2.00;;
56667;SDS011;42542;48.360;10.958;2023-07-13T13:24:10;6.20;;;1.95;;
56667;SDS011;42542;48.360;10.958;2023-07-13T13:27:15;7.47;;;2.30;;
56667;SDS011;42542;48.360;10.958;2023-07-13T13:30:23;6.50;;;2.40;;
56667;SDS011;42542;48.360;10.958;2023-07-13T13:33:28;6.72;;;2.10;;
56667;SDS011;42542;48.360;10.958;2023-07-13T13:36:44;6.13;;;2.10;;
56667;SDS011;42542;48.360;10.958;2023-07-13T13:39:50;5.20;;;2.28;;
56667;SDS011;42542;48.360;10.958;2023-07-13T13:46:20;6.53;;;2.30;;
56667;SDS011;42542;48.360;10.958;2023-07-13T13:49:27;5.45;;;2.10;;
56667;SDS011;42542;48.360;10.958;2023-07-13T13:52:29;5.68;;;2.00;;
56667;SDS011;42542;48.360;10.958;2023-07-13T13:55:31;5.47;;;2.00;;
56667;SDS011;42542;48.360;10.958;2023-07-13T13:58:33;6.30;;;2.10;;
56667;SDS011;42542;48.360;10.958;2023-07-13T14:01:36;5.23;;;2.03;;
56667;SDS011;42542;48.360;10.958;2023-07-13T14:04:39;8.95;;;2.30;;
56667;SDS011;42542;48.360;10.958;2023-07-13T14:07:41;5.25;;;2.13;;
56667;SDS011;42542;48.360;10.958;2023-07-13T14:10:50;6.88;;;2.20;;
56667;SDS011;42542;48.360;10.958;2023-07-13T14:13:57;6.07;;;2.40;;
56667;SDS011;42542;48.360;10.958;2023-07-13T14:17:03;6.93;;;2.30;;
56667;SDS011;42542;48.360;10.958;2023-07-13T14:20:11;5.50;;;2.10;;
56667;SDS011;42542;48.360;10.958;2023-07-13T14:23:15;6.18;;;2.20;;
56667;SDS011;42542;48.360;10.958;2023-07-13T14:26:20;5.85;;;2.25;;
56667;SDS011;42542;48.360;10.958;2023-07-13T14:29:26;6.37;;;2.07;;
56667;SDS011;42542;48.360;10.958;2023-07-13T14:32:29;5.20;;;2.10;;
56667;SDS011;42542;48.360;10.958;2023-07-13T14:35:31;7.15;;;2.30;;
56667;SDS011;42542;48.360;10.958;2023-07-13T14:38:48;5.65;;;2.30;;
56667;SDS011;42542;48.360;10.958;2023-07-13T14:41:54;6.95;;;2.30;;
56667;SDS011;42542;48.360;10.958;2023-07-13T14:44:58;5.70;;;2.10;;
56667;SDS011;42542;48.360;10.958;2023-07-13T14:47:59;5.20;;;2.00;;
56667;SDS011;42542;48.360;10.958;2023-07-13T14:51:02;4.97;;;1.88;;
56667;SDS011;42542;48.360;10.958;2023-07-13T14:54:09;6.15;;;2.00;;
56667;SDS011;42542;48.360;10.958;2023-07-13T14:57:15;5.45;;;2.00;;
56667;SDS011;42542;48.360;10.958;2023-07-13T15:00:24;5.50;;;1.97;;
56667;SDS011;42542;48.360;10.958;2023-07-13T15:03:27;6.87;;;2.00;;
56667;SDS011;42542;48.360;10.958;2023-07-13T15:06:29;6.18;;;2.13;;
56667;SDS011;42542;48.360;10.958;2023-07-13T15:09:33;6.15;;;1.83;;
56667;SDS011;42542;48.360;10.958;2023-07-13T15:12:35;6.82;;;2.25;;
56667;SDS011;42542;48.360;10.958;2023-07-13T15:15:44;5.80;;;2.10;;
56667;SDS011;42542;48.360;10.958;2023-07-13T15:18:57;5.67;;;2.10;;
56667;SDS011;42542;48.360;10.958;2023-07-13T15:22:02;6.43;;;2.33;;
56667;SDS011;42542;48.360;10.958;2023-07-13T15:25:08;6.50;;;2.00;;
56667;SDS011;42542;48.360;10.958;2023-07-13T15:28:22;6.43;;;2.00;;
56667;SDS011;42542;48.360;10.958;2023-07-13T15:31:26;7.13;;;2.00;;
56667;SDS011;42542;48.360;10.958;2023-07-13T15:34:37;5.50;;;2.10;;
56667;SDS011;42542;48.360;10.958;2023-07-13T15:37:47;5.20;;;2.00;;
56667;SDS011;42542;48.360;10.958;2023-07-13T15:40:53;8.85;;;2.22;;
56667;SDS011;42542;48.360;10.958;2023-07-13T15:43:58;5.85;;;1.90;;
56667;SDS011;42542;48.360;10.958;2023-07-13T15:47:10;5.10;;;2.00;;
56667;SDS011;42542;48.360;10.958;2023-07-13T15:50:22;7.07;;;1.90;;
56667;SDS011;42542;48.360;10.958;2023-07-13T15:53:31;5.97;;;1.90;;
56667;SDS011;42542;48.360;10.958;2023-07-13T15:56:38;4.72;;;1.80;;
56667;SDS011;42542;48.360;10.958;2023-07-13T15:59:46;5.75;;;1.90;;
56667;SDS011;42542;48.360;10.958;2023-07-13T16:02:50;6.27;;;2.23;;
56667;SDS011;42542;48.360;10.958;2023-07-13T16:05:56;5.60;;;2.00;;
56667;SDS011;42542;48.360;10.958;2023-07-13T16:08:58;5.45;;;2.08;;
56667;SDS011;42542;48.360;10.958;2023-07-13T16:12:01;4.72;;;1.90;;
56667;SDS011;42542;48.360;10.958;2023-07-13T16:15:08;8.73;;;2.03;;
56667;SDS011;42542;48.360;10.958;2023-07-13T16:18:21;6.30;;;2.10;;
56667;SDS011;42542;48.360;10.958;2023-07-13T16:21:24;7.23;;;2.00;;
56667;SDS011;42542;48.360;10.958;2023-07-13T16:24:31;5.35;;;2.03;;
56667;SDS011;42542;48.360;10.958;2023-07-13T16:27:35;5.35;;;2.00;;
56667;SDS011;42542;48.360;10.958;2023-07-13T16:30:37;8.15;;;2.20;;
56667;SDS011;42542;48.360;10.958;2023-07-13T16:33:40;5.30;;;2.20;;
56667;SDS011;42542;48.360;10.958;2023-07-13T16:36:42;6.30;;;2.20;;
56667;SDS011;42542;48.360;10.958;2023-07-13T16:39:55;8.82;;;2.22;;
56667;SDS011;42542;48.360;10.958;2023-07-13T16:43:00;7.72;;;2.08;;
56667;SDS011;42542;48.360;10.958;2023-07-13T16:46:07;5.88;;;2.30;;
56667;SDS011;42542;48.360;10.958;2023-07-13T16:49:26;4.70;;;1.90;;
56667;SDS011;42542;48.360;10.958;2023-07-13T16:52:31;5.47;;;2.00;;
56667;SDS011;42542;48.360;10.958;2023-07-13T16:55:35;6.80;;;2.15;;
56667;SDS011;42542;48.360;10.958;2023-07-13T16:58:37;5.22;;;2.00;;
56667;SDS011;42542;48.360;10.958;2023-07-13T17:01:39;6.03;;;2.20;;
56667;SDS011;42542;48.360;10.958;2023-07-13T17:04:42;5.50;;;2.30;;
56667;SDS011;42542;48.360;10.958;2023-07-13T17:07:44;5.00;;;2.13;;
56667;SDS011;42542;48.360;10.958;2023-07-13T17:10:50;6.07;;;2.25;;
56667;SDS011;42542;48.360;10.958;2023-07-13T17:13:56;5.90;;;2.30;;
56667;SDS011;42542;48.360;10.958;2023-07-13T17:16:59;7.03;;;2.30;;
56667;SDS011;42542;48.360;10.958;2023-07-13T17:20:01;5.27;;;2.20;;
56667;SDS011;42542;48.360;10.958;2023-07-13T17:23:20;5.70;;;3.00;;
56667;SDS011;42542;48.360;10.958;2023-07-13T17:26:25;7.68;;;4.10;;
56667;SDS011;42542;48.360;10.958;2023-07-13T17:29:28;9.10;;;5.10;;
56667;SDS011;42542;48.360;10.958;2023-07-13T17:32:29;8.45;;;4.65;;
56667;SDS011;42542;48.360;10.958;2023-07-13T17:35:32;12.20;;;6.33;;
56667;SDS011;42542;48.360;10.958;2023-07-13T17:41:44;6.55;;;2.60;;
56667;SDS011;42542;48.360;10.958;2023-07-13T17:44:46;6.07;;;2.50;;
56667;SDS011;42542;48.360;10.958;2023-07-13T17:47:51;6.72;;;2.47;;
56667;SDS011;42542;48.360;10.958;2023-07-13T17:50:55;5.93;;;2.40;;
56667;SDS011;42542;48.360;10.958;2023-07-13T17:54:01;5.60;;;2.10;;
56667;SDS011;42542;48.360;10.958;2023-07-13T17:57:04;7.40;;;2.35;;
56667;SDS011;42542;48.360;10.958;2023-07-13T18:00:10;6.22;;;2.42;;
56667;SDS011;42542;48.360;10.958;2023-07-13T18:03:28;5.65;;;2.10;;
56667;SDS011;42542;48.360;10.958;2023-07-13T18:06:46;7.90;;;2.30;;
56667;SDS011;42542;48.360;10.958;2023-07-13T18:09:54;5.83;;;2.40;;
56667;SDS011;42542;48.360;10.958;2023-07-13T18:12:57;5.90;;;2.20;;
56667;SDS011;42542;48.360;10.958;2023-07-13T18:15:59;8.80;;;2.30;;
56667;SDS011;42542;48.360;10.958;2023-07-13T18:19:01;8.45;;;2.42;;
56667;SDS011;42542;48.360;10.958;2023-07-13T18:22:15;7.57;;;2.63;;
56667;SDS011;42542;48.360;10.958;2023-07-13T18:25:24;8.33;;;2.53;;
56667;SDS011;42542;48.360;10.958;2023-07-13T18:28:30;6.28;;;2.63;;
56667;SDS011;42542;48.360;10.958;2023-07-13T18:31:35;6.82;;;2.50;;
56667;SDS011;42542;48.360;10.958;2023-07-13T18:34:39;8.50;;;2.50;;
56667;SDS011;42542;48.360;10.958;2023-07-13T18:38:00;7.83;;;2.33;;
56667;SDS011;42542;48.360;10.958;2023-07-13T18:41:04;5.93;;;2.60;;
56667;SDS011;42542;48.360;10.958;2023-07-13T18:44:05;6.82;;;2.25;;
56667;SDS011;42542;48.360;10.958;2023-07-13T18:47:09;6.05;;;2.22;;
56667;SDS011;42542;48.360;10.958;2023-07-13T18:50:54;6.80;;;2.50;;